sensor_id;sensor_type;location;lat;lon;timestamp;temperature;humidity
45115;DHT22;30877;43.706;10.780;2023-03-01T00:01:15;9.40;96.70
45115;DHT22;30877;43.706;10.780;2023-03-01T00:03:43;9.30;96.70
45115;DHT22;30877;43.706;10.780;2023-03-01T00:06:12;9.30;96.70
45115;DHT22;30877;43.706;10.780;2023-03-01T00:08:40;9.30;96.70
45115;DHT22;30877;43.706;10.780;2023-03-01T00:11:12;9.20;96.70
45115;DHT22;30877;43.706;10.780;2023-03-01T00:13:41;9.20;96.70
45115;DHT22;30877;43.706;10.780;2023-03-01T00:16:12;9.10;96.70
45115;DHT22;30877;43.706;10.780;2023-03-01T00:18:41;9.00;96.70
45115;DHT22;30877;43.706;10.780;2023-03-01T00:21:09;9.00;96.70
45115;DHT22;30877;43.706;10.780;2023-03-01T00:23:38;9.00;96.70
45115;DHT22;30877;43.706;10.780;2023-03-01T00:26:08;8.90;96.70
45115;DHT22;30877;43.706;10.780;2023-03-01T00:28:39;8.90;96.70
45115;DHT22;30877;43.706;10.780;2023-03-01T00:31:12;8.80;96.70
45115;DHT22;30877;43.706;10.780;2023-03-01T00:33:40;8.80;96.70
45115;DHT22;30877;43.706;10.780;2023-03-01T00:36:10;8.80;96.70
45115;DHT22;30877;43.706;10.780;2023-03-01T00:38:40;8.80;96.70
45115;DHT22;30877;43.706;10.780;2023-03-01T00:41:20;8.80;96.70
45115;DHT22;30877;43.706;10.780;2023-03-01T00:43:50;8.80;96.70
45115;DHT22;30877;43.706;10.780;2023-03-01T00:46:21;8.70;96.70
45115;DHT22;30877;43.706;10.780;2023-03-01T00:48:50;8.70;96.70
45115;DHT22;30877;43.706;10.780;2023-03-01T00:51:19;8.80;96.70
45115;DHT22;30877;43.706;10.780;2023-03-01T00:53:50;8.70;96.70
45115;DHT22;30877;43.706;10.780;2023-03-01T00:56:18;8.70;96.70
45115;DHT22;30877;43.706;10.780;2023-03-01T00:58:47;8.70;96.70
45115;DHT22;30877;43.706;10.780;2023-03-01T01:01:19;8.70;96.70
45115;DHT22;30877;43.706;10.780;2023-03-01T01:03:50;8.70;96.70
45115;DHT22;30877;43.706;10.780;2023-03-01T01:06:20;8.70;96.70
45115;DHT22;30877;43.706;10.780;2023-03-01T01:08:49;8.70;96.70
45115;DHT22;30877;43.706;10.780;2023-03-01T01:11:18;8.70;96.70
45115;DHT22;30877;43.706;10.780;2023-03-01T01:13:47;8.70;96.70
45115;DHT22;30877;43.706;10.780;2023-03-01T01:16:17;8.70;96.70
45115;DHT22;30877;43.706;10.780;2023-03-01T01:18:47;8.70;96.70
45115;DHT22;30877;43.706;10.780;2023-03-01T01:21:16;8.80;96.70
45115;DHT22;30877;43.706;10.780;2023-03-01T01:23:46;8.70;96.70
45115;DHT22;30877;43.706;10.780;2023-03-01T01:26:16;8.70;96.70
45115;DHT22;30877;43.706;10.780;2023-03-01T01:28:45;8.70;96.70
45115;DHT22;30877;43.706;10.780;2023-03-01T01:31:13;8.80;96.70
45115;DHT22;30877;43.706;10.780;2023-03-01T01:33:41;8.70;96.70
45115;DHT22;30877;43.706;10.780;2023-03-01T01:36:11;8.80;96.70
45115;DHT22;30877;43.706;10.780;2023-03-01T01:38:39;8.80;96.70
45115;DHT22;30877;43.706;10.780;2023-03-01T01:41:07;8.90;96.70
45115;DHT22;30877;43.706;10.780;2023-03-01T01:43:38;8.80;96.70
45115;DHT22;30877;43.706;10.780;2023-03-01T01:46:14;8.80;96.70
45115;DHT22;30877;43.706;10.780;2023-03-01T01:48:46;8.80;96.70
45115;DHT22;30877;43.706;10.780;2023-03-01T01:51:20;8.90;96.70
45115;DHT22;30877;43.706;10.780;2023-03-01T01:53:54;8.90;96.70
45115;DHT22;30877;43.706;10.780;2023-03-01T01:56:24;8.90;96.70
45115;DHT22;30877;43.706;10.780;2023-03-01T01:58:53;8.90;96.70
45115;DHT22;30877;43.706;10.780;2023-03-01T02:01:22;8.90;96.70
45115;DHT22;30877;43.706;10.780;2023-03-01T02:03:51;8.90;96.70
45115;DHT22;30877;43.706;10.780;2023-03-01T02:06:25;8.90;96.70
45115;DHT22;30877;43.706;10.780;2023-03-01T02:09:00;8.90;96.70
45115;DHT22;30877;43.706;10.780;2023-03-01T02:11:30;8.90;96.70
45115;DHT22;30877;43.706;10.780;2023-03-01T02:13:59;8.90;96.70
45115;DHT22;30877;43.706;10.780;2023-03-01T02:16:28;8.90;96.70
45115;DHT22;30877;43.706;10.780;2023-03-01T02:18:57;8.90;96.70
45115;DHT22;30877;43.706;10.780;2023-03-01T02:21:44;9.00;96.70
45115;DHT22;30877;43.706;10.780;2023-03-01T02:24:27;9.00;96.70
45115;DHT22;30877;43.706;10.780;2023-03-01T02:27:00;9.00;96.70
45115;DHT22;30877;43.706;10.780;2023-03-01T02:29:30;9.00;96.70
45115;DHT22;30877;43.706;10.780;2023-03-01T02:32:01;9.00;96.70
45115;DHT22;30877;43.706;10.780;2023-03-01T02:34:31;9.00;96.70
45115;DHT22;30877;43.706;10.780;2023-03-01T02:37:05;9.00;96.70
45115;DHT22;30877;43.706;10.780;2023-03-01T02:39:40;8.90;96.70
45115;DHT22;30877;43.706;10.780;2023-03-01T02:42:13;8.80;96.70
45115;DHT22;30877;43.706;10.780;2023-03-01T02:44:45;8.90;96.70
45115;DHT22;30877;43.706;10.780;2023-03-01T02:47:13;8.90;96.70
45115;DHT22;30877;43.706;10.780;2023-03-01T02:49:41;8.90;96.70
45115;DHT22;30877;43.706;10.780;2023-03-01T02:52:33;8.90;96.70
45115;DHT22;30877;43.706;10.780;2023-03-01T02:55:07;8.80;96.70
45115;DHT22;30877;43.706;10.780;2023-03-01T02:57:39;8.80;96.70
45115;DHT22;30877;43.706;10.780;2023-03-01T03:00:12;8.80;96.70
45115;DHT22;30877;43.706;10.780;2023-03-01T03:02:48;8.90;96.70
45115;DHT22;30877;43.706;10.780;2023-03-01T03:05:20;8.90;96.70
45115;DHT22;30877;43.706;10.780;2023-03-01T03:07:53;8.90;96.70
45115;DHT22;30877;43.706;10.780;2023-03-01T03:10:24;8.90;96.70
45115;DHT22;30877;43.706;10.780;2023-03-01T03:12:54;9.00;96.70
45115;DHT22;30877;43.706;10.780;2023-03-01T03:15:25;9.00;96.70
45115;DHT22;30877;43.706;10.780;2023-03-01T03:17:56;8.90;96.70
45115;DHT22;30877;43.706;10.780;2023-03-01T03:20:27;8.90;96.70
45115;DHT22;30877;43.706;10.780;2023-03-01T03:22:56;8.90;96.70
45115;DHT22;30877;43.706;10.780;2023-03-01T03:25:28;8.90;96.70
45115;DHT22;30877;43.706;10.780;2023-03-01T03:27:57;8.90;96.70
45115;DHT22;30877;43.706;10.780;2023-03-01T03:30:28;8.90;96.70
45115;DHT22;30877;43.706;10.780;2023-03-01T03:32:58;9.00;96.70
45115;DHT22;30877;43.706;10.780;2023-03-01T03:35:28;9.00;96.70
45115;DHT22;30877;43.706;10.780;2023-03-01T03:38:01;9.00;96.70
45115;DHT22;30877;43.706;10.780;2023-03-01T03:40:33;9.10;96.70
45115;DHT22;30877;43.706;10.780;2023-03-01T03:43:02;9.10;96.70
45115;DHT22;30877;43.706;10.780;2023-03-01T03:45:33;9.10;96.70
45115;DHT22;30877;43.706;10.780;2023-03-01T03:48:04;9.20;96.70
45115;DHT22;30877;43.706;10.780;2023-03-01T03:50:33;9.20;96.70
45115;DHT22;30877;43.706;10.780;2023-03-01T03:53:04;9.20;96.70
45115;DHT22;30877;43.706;10.780;2023-03-01T03:55:33;9.20;96.70
45115;DHT22;30877;43.706;10.780;2023-03-01T03:58:02;9.30;96.70
45115;DHT22;30877;43.706;10.780;2023-03-01T04:00:37;9.20;96.70
45115;DHT22;30877;43.706;10.780;2023-03-01T04:03:06;9.10;96.70
45115;DHT22;30877;43.706;10.780;2023-03-01T04:05:35;9.20;96.70
45115;DHT22;30877;43.706;10.780;2023-03-01T04:08:04;9.20;96.70
45115;DHT22;30877;43.706;10.780;2023-03-01T04:10:37;9.20;96.70
45115;DHT22;30877;43.706;10.780;2023-03-01T04:13:06;9.20;96.70
45115;DHT22;30877;43.706;10.780;2023-03-01T04:15:36;9.20;96.70
45115;DHT22;30877;43.706;10.780;2023-03-01T04:18:05;9.10;96.70
45115;DHT22;30877;43.706;10.780;2023-03-01T04:20:34;9.10;96.70
45115;DHT22;30877;43.706;10.780;2023-03-01T04:23:05;9.10;96.70
45115;DHT22;30877;43.706;10.780;2023-03-01T04:25:44;9.10;96.70
45115;DHT22;30877;43.706;10.780;2023-03-01T04:28:13;9.10;96.70
45115;DHT22;30877;43.706;10.780;2023-03-01T04:30:43;9.10;96.70
45115;DHT22;30877;43.706;10.780;2023-03-01T04:33:11;9.10;96.70
45115;DHT22;30877;43.706;10.780;2023-03-01T04:35:40;9.00;96.70
45115;DHT22;30877;43.706;10.780;2023-03-01T04:38:09;9.10;96.70
45115;DHT22;30877;43.706;10.780;2023-03-01T04:40:37;9.00;96.70
45115;DHT22;30877;43.706;10.780;2023-03-01T04:43:05;9.00;96.70
45115;DHT22;30877;43.706;10.780;2023-03-01T04:45:33;9.00;96.70
45115;DHT22;30877;43.706;10.780;2023-03-01T04:48:04;9.00;96.70
45115;DHT22;30877;43.706;10.780;2023-03-01T04:50:33;9.00;96.70
45115;DHT22;30877;43.706;10.780;2023-03-01T04:53:01;9.00;96.70
45115;DHT22;30877;43.706;10.780;2023-03-01T04:55:29;9.00;96.70
45115;DHT22;30877;43.706;10.780;2023-03-01T04:57:57;9.10;96.70
45115;DHT22;30877;43.706;10.780;2023-03-01T05:00:26;9.10;96.70
45115;DHT22;30877;43.706;10.780;2023-03-01T05:02:56;9.10;96.70
45115;DHT22;30877;43.706;10.780;2023-03-01T05:05:27;9.10;96.70
45115;DHT22;30877;43.706;10.780;2023-03-01T05:07:57;9.20;96.70
45115;DHT22;30877;43.706;10.780;2023-03-01T05:10:26;9.20;96.70
45115;DHT22;30877;43.706;10.780;2023-03-01T05:12:57;9.20;96.70
45115;DHT22;30877;43.706;10.780;2023-03-01T05:15:26;9.20;96.70
45115;DHT22;30877;43.706;10.780;2023-03-01T05:17:57;9.10;96.70
45115;DHT22;30877;43.706;10.780;2023-03-01T05:20:30;9.10;96.70
45115;DHT22;30877;43.706;10.780;2023-03-01T05:23:00;9.00;96.70
45115;DHT22;30877;43.706;10.780;2023-03-01T05:25:33;9.00;96.70
45115;DHT22;30877;43.706;10.780;2023-03-01T05:28:02;9.10;96.70
45115;DHT22;30877;43.706;10.780;2023-03-01T05:30:32;9.10;96.70
45115;DHT22;30877;43.706;10.780;2023-03-01T05:33:01;9.00;96.70
45115;DHT22;30877;43.706;10.780;2023-03-01T05:35:32;9.10;96.70
45115;DHT22;30877;43.706;10.780;2023-03-01T05:38:01;9.10;96.70
45115;DHT22;30877;43.706;10.780;2023-03-01T05:40:29;9.10;96.70
45115;DHT22;30877;43.706;10.780;2023-03-01T05:42:57;9.10;96.70
45115;DHT22;30877;43.706;10.780;2023-03-01T05:45:27;9.10;96.70
45115;DHT22;30877;43.706;10.780;2023-03-01T05:47:55;9.00;96.70
45115;DHT22;30877;43.706;10.780;2023-03-01T05:50:24;8.90;96.70
45115;DHT22;30877;43.706;10.780;2023-03-01T05:52:59;8.90;96.70
45115;DHT22;30877;43.706;10.780;2023-03-01T05:55:28;8.90;96.70
45115;DHT22;30877;43.706;10.780;2023-03-01T05:57:58;8.90;96.70
45115;DHT22;30877;43.706;10.780;2023-03-01T06:00:28;8.90;96.70
45115;DHT22;30877;43.706;10.780;2023-03-01T06:02:58;8.90;96.70
45115;DHT22;30877;43.706;10.780;2023-03-01T06:05:27;8.90;96.70
45115;DHT22;30877;43.706;10.780;2023-03-01T06:07:58;8.80;96.70
45115;DHT22;30877;43.706;10.780;2023-03-01T06:10:27;8.90;96.70
45115;DHT22;30877;43.706;10.780;2023-03-01T06:12:55;8.80;96.70
45115;DHT22;30877;43.706;10.780;2023-03-01T06:15:24;8.80;96.70
45115;DHT22;30877;43.706;10.780;2023-03-01T06:17:54;8.90;96.70
45115;DHT22;30877;43.706;10.780;2023-03-01T06:20:28;9.00;96.70
45115;DHT22;30877;43.706;10.780;2023-03-01T06:22:57;9.00;96.70
45115;DHT22;30877;43.706;10.780;2023-03-01T06:25:32;9.00;96.70
45115;DHT22;30877;43.706;10.780;2023-03-01T06:28:00;9.00;96.70
45115;DHT22;30877;43.706;10.780;2023-03-01T06:30:28;9.00;96.70
45115;DHT22;30877;43.706;10.780;2023-03-01T06:32:56;8.90;96.70
45115;DHT22;30877;43.706;10.780;2023-03-01T06:35:28;8.90;96.70
45115;DHT22;30877;43.706;10.780;2023-03-01T06:38:02;8.80;96.70
45115;DHT22;30877;43.706;10.780;2023-03-01T06:40:31;8.80;96.70
45115;DHT22;30877;43.706;10.780;2023-03-01T06:42:59;8.80;96.70
45115;DHT22;30877;43.706;10.780;2023-03-01T06:45:28;8.70;96.70
45115;DHT22;30877;43.706;10.780;2023-03-01T06:48:03;8.60;96.70
45115;DHT22;30877;43.706;10.780;2023-03-01T06:50:33;8.60;96.70
45115;DHT22;30877;43.706;10.780;2023-03-01T06:53:02;8.60;96.70
45115;DHT22;30877;43.706;10.780;2023-03-01T06:55:31;8.60;96.70
45115;DHT22;30877;43.706;10.780;2023-03-01T06:58:00;8.60;96.70
45115;DHT22;30877;43.706;10.780;2023-03-01T07:00:29;8.50;96.70
45115;DHT22;30877;43.706;10.780;2023-03-01T07:02:59;8.50;96.70
45115;DHT22;30877;43.706;10.780;2023-03-01T07:05:28;8.50;96.70
45115;DHT22;30877;43.706;10.780;2023-03-01T07:07:56;8.40;96.70
45115;DHT22;30877;43.706;10.780;2023-03-01T07:10:25;8.40;96.70
45115;DHT22;30877;43.706;10.780;2023-03-01T07:12:55;8.30;96.70
45115;DHT22;30877;43.706;10.780;2023-03-01T07:15:23;8.20;96.70
45115;DHT22;30877;43.706;10.780;2023-03-01T07:17:51;8.20;96.70
45115;DHT22;30877;43.706;10.780;2023-03-01T07:20:20;8.20;96.70
45115;DHT22;30877;43.706;10.780;2023-03-01T07:22:53;8.10;96.70
45115;DHT22;30877;43.706;10.780;2023-03-01T07:25:21;8.10;96.70
45115;DHT22;30877;43.706;10.780;2023-03-01T07:27:51;8.00;96.70
45115;DHT22;30877;43.706;10.780;2023-03-01T07:30:20;8.00;96.70
45115;DHT22;30877;43.706;10.780;2023-03-01T07:32:48;8.00;96.70
45115;DHT22;30877;43.706;10.780;2023-03-01T07:35:17;8.10;96.70
45115;DHT22;30877;43.706;10.780;2023-03-01T07:37:45;8.10;96.70
45115;DHT22;30877;43.706;10.780;2023-03-01T07:40:13;8.20;96.70
45115;DHT22;30877;43.706;10.780;2023-03-01T07:42:41;8.10;96.70
45115;DHT22;30877;43.706;10.780;2023-03-01T07:45:11;7.90;96.70
45115;DHT22;30877;43.706;10.780;2023-03-01T07:47:41;7.90;96.70
45115;DHT22;30877;43.706;10.780;2023-03-01T07:50:10;7.80;96.70
45115;DHT22;30877;43.706;10.780;2023-03-01T07:52:38;7.80;96.70
45115;DHT22;30877;43.706;10.780;2023-03-01T07:55:08;7.90;96.70
45115;DHT22;30877;43.706;10.780;2023-03-01T07:57:36;7.90;96.70
45115;DHT22;30877;43.706;10.780;2023-03-01T08:00:05;7.80;96.70
45115;DHT22;30877;43.706;10.780;2023-03-01T08:02:39;7.70;96.70
45115;DHT22;30877;43.706;10.780;2023-03-01T08:05:09;7.70;96.70
45115;DHT22;30877;43.706;10.780;2023-03-01T08:07:38;7.70;96.70
45115;DHT22;30877;43.706;10.780;2023-03-01T08:10:06;7.80;96.70
45115;DHT22;30877;43.706;10.780;2023-03-01T08:12:35;7.70;96.70
45115;DHT22;30877;43.706;10.780;2023-03-01T08:15:10;7.70;96.70
45115;DHT22;30877;43.706;10.780;2023-03-01T08:17:40;7.70;96.70
45115;DHT22;30877;43.706;10.780;2023-03-01T08:20:09;7.60;96.70
45115;DHT22;30877;43.706;10.780;2023-03-01T08:22:40;7.70;96.70
45115;DHT22;30877;43.706;10.780;2023-03-01T08:25:08;7.60;96.70
45115;DHT22;30877;43.706;10.780;2023-03-01T08:27:37;7.50;96.70
45115;DHT22;30877;43.706;10.780;2023-03-01T08:30:06;7.60;96.70
45115;DHT22;30877;43.706;10.780;2023-03-01T08:32:39;7.80;96.70
45115;DHT22;30877;43.706;10.780;2023-03-01T08:35:08;7.90;96.70
45115;DHT22;30877;43.706;10.780;2023-03-01T08:37:36;8.00;96.70
45115;DHT22;30877;43.706;10.780;2023-03-01T08:40:05;8.10;96.70
45115;DHT22;30877;43.706;10.780;2023-03-01T08:42:34;7.90;96.70
45115;DHT22;30877;43.706;10.780;2023-03-01T08:45:03;7.80;96.70
45115;DHT22;30877;43.706;10.780;2023-03-01T08:47:31;7.80;96.70
45115;DHT22;30877;43.706;10.780;2023-03-01T08:50:03;7.90;96.70
45115;DHT22;30877;43.706;10.780;2023-03-01T08:52:32;7.90;96.70
45115;DHT22;30877;43.706;10.780;2023-03-01T08:55:32;7.90;96.70
45115;DHT22;30877;43.706;10.780;2023-03-01T08:58:00;8.00;96.70
45115;DHT22;30877;43.706;10.780;2023-03-01T09:00:28;8.10;96.70
45115;DHT22;30877;43.706;10.780;2023-03-01T09:02:56;8.10;96.70
45115;DHT22;30877;43.706;10.780;2023-03-01T09:05:25;8.10;96.70
45115;DHT22;30877;43.706;10.780;2023-03-01T09:07:55;8.10;96.70
45115;DHT22;30877;43.706;10.780;2023-03-01T09:10:24;8.10;96.70
45115;DHT22;30877;43.706;10.780;2023-03-01T09:12:52;8.10;96.70
45115;DHT22;30877;43.706;10.780;2023-03-01T09:15:20;8.10;96.70
45115;DHT22;30877;43.706;10.780;2023-03-01T09:17:49;8.10;96.70
45115;DHT22;30877;43.706;10.780;2023-03-01T09:20:20;8.10;96.70
45115;DHT22;30877;43.706;10.780;2023-03-01T09:22:49;8.10;96.70
45115;DHT22;30877;43.706;10.780;2023-03-01T09:25:17;8.10;96.70
45115;DHT22;30877;43.706;10.780;2023-03-01T09:27:46;8.10;96.70
45115;DHT22;30877;43.706;10.780;2023-03-01T09:30:14;8.20;96.70
45115;DHT22;30877;43.706;10.780;2023-03-01T09:32:42;8.20;96.70
45115;DHT22;30877;43.706;10.780;2023-03-01T09:35:12;8.20;96.70
45115;DHT22;30877;43.706;10.780;2023-03-01T09:37:40;8.20;96.70
45115;DHT22;30877;43.706;10.780;2023-03-01T09:40:16;8.30;96.70
45115;DHT22;30877;43.706;10.780;2023-03-01T09:45:35;8.30;96.70
45115;DHT22;30877;43.706;10.780;2023-03-01T09:48:08;8.30;96.70
45115;DHT22;30877;43.706;10.780;2023-03-01T09:50:41;8.40;96.70
45115;DHT22;30877;43.706;10.780;2023-03-01T09:53:15;8.40;96.70
45115;DHT22;30877;43.706;10.780;2023-03-01T09:55:48;8.40;96.70
45115;DHT22;30877;43.706;10.780;2023-03-01T09:58:31;8.30;96.70
45115;DHT22;30877;43.706;10.780;2023-03-01T10:01:06;8.30;96.70
45115;DHT22;30877;43.706;10.780;2023-03-01T10:03:43;8.20;96.70
45115;DHT22;30877;43.706;10.780;2023-03-01T10:06:15;8.10;96.70
45115;DHT22;30877;43.706;10.780;2023-03-01T10:09:02;8.10;96.70
45115;DHT22;30877;43.706;10.780;2023-03-01T10:11:37;8.10;96.70
45115;DHT22;30877;43.706;10.780;2023-03-01T10:14:17;8.20;96.70
45115;DHT22;30877;43.706;10.780;2023-03-01T10:16:50;8.10;96.70
45115;DHT22;30877;43.706;10.780;2023-03-01T10:19:23;8.10;96.70
45115;DHT22;30877;43.706;10.780;2023-03-01T10:21:51;8.20;96.70
45115;DHT22;30877;43.706;10.780;2023-03-01T10:24:20;8.20;96.70
45115;DHT22;30877;43.706;10.780;2023-03-01T10:26:55;8.10;96.70
45115;DHT22;30877;43.706;10.780;2023-03-01T10:29:26;7.90;96.70
45115;DHT22;30877;43.706;10.780;2023-03-01T10:31:57;7.90;96.70
45115;DHT22;30877;43.706;10.780;2023-03-01T10:34:29;8.10;96.70
45115;DHT22;30877;43.706;10.780;2023-03-01T10:37:01;8.00;96.70
45115;DHT22;30877;43.706;10.780;2023-03-01T10:39:58;7.80;96.70
45115;DHT22;30877;43.706;10.780;2023-03-01T10:42:31;7.80;96.70
45115;DHT22;30877;43.706;10.780;2023-03-01T10:45:16;7.70;96.70
45115;DHT22;30877;43.706;10.780;2023-03-01T10:47:45;7.70;96.70
45115;DHT22;30877;43.706;10.780;2023-03-01T10:50:23;7.70;96.70
45115;DHT22;30877;43.706;10.780;2023-03-01T10:52:58;7.60;96.70
45115;DHT22;30877;43.706;10.780;2023-03-01T10:55:31;7.50;96.70
45115;DHT22;30877;43.706;10.780;2023-03-01T10:58:15;7.60;96.70
45115;DHT22;30877;43.706;10.780;2023-03-01T11:00:47;7.70;96.70
45115;DHT22;30877;43.706;10.780;2023-03-01T11:03:19;7.70;96.70
45115;DHT22;30877;43.706;10.780;2023-03-01T11:05:59;7.80;96.70
45115;DHT22;30877;43.706;10.780;2023-03-01T11:08:39;7.80;96.70
45115;DHT22;30877;43.706;10.780;2023-03-01T11:11:21;7.70;96.70
45115;DHT22;30877;43.706;10.780;2023-03-01T11:13:56;7.80;96.70
45115;DHT22;30877;43.706;10.780;2023-03-01T11:16:27;7.90;96.70
45115;DHT22;30877;43.706;10.780;2023-03-01T11:18:57;7.80;96.70
45115;DHT22;30877;43.706;10.780;2023-03-01T11:21:28;7.80;96.70
45115;DHT22;30877;43.706;10.780;2023-03-01T11:23:58;7.80;96.70
45115;DHT22;30877;43.706;10.780;2023-03-01T11:26:28;7.80;96.70
45115;DHT22;30877;43.706;10.780;2023-03-01T11:29:04;7.90;96.70
45115;DHT22;30877;43.706;10.780;2023-03-01T11:31:33;7.80;96.70
45115;DHT22;30877;43.706;10.780;2023-03-01T11:34:07;7.90;96.70
45115;DHT22;30877;43.706;10.780;2023-03-01T11:36:42;7.90;96.70
45115;DHT22;30877;43.706;10.780;2023-03-01T11:39:22;7.90;96.70
45115;DHT22;30877;43.706;10.780;2023-03-01T11:42:00;8.00;96.70
45115;DHT22;30877;43.706;10.780;2023-03-01T11:44:47;8.10;96.70
45115;DHT22;30877;43.706;10.780;2023-03-01T11:47:38;8.20;96.70
45115;DHT22;30877;43.706;10.780;2023-03-01T11:50:20;8.20;96.70
45115;DHT22;30877;43.706;10.780;2023-03-01T11:53:07;8.00;96.70
45115;DHT22;30877;43.706;10.780;2023-03-01T11:55:58;7.90;96.70
45115;DHT22;30877;43.706;10.780;2023-03-01T11:58:47;8.00;96.70
45115;DHT22;30877;43.706;10.780;2023-03-01T12:01:33;8.00;96.70
45115;DHT22;30877;43.706;10.780;2023-03-01T12:04:24;7.90;96.70
45115;DHT22;30877;43.706;10.780;2023-03-01T12:06:59;7.90;96.70
45115;DHT22;30877;43.706;10.780;2023-03-01T12:09:38;7.90;96.70
45115;DHT22;30877;43.706;10.780;2023-03-01T12:12:30;8.00;96.70
45115;DHT22;30877;43.706;10.780;2023-03-01T12:15:21;8.10;96.70
45115;DHT22;30877;43.706;10.780;2023-03-01T12:20:58;8.00;96.70
45115;DHT22;30877;43.706;10.780;2023-03-01T12:23:56;7.80;96.70
45115;DHT22;30877;43.706;10.780;2023-03-01T12:26:33;7.90;96.70
45115;DHT22;30877;43.706;10.780;2023-03-01T12:29:13;7.90;96.70
45115;DHT22;30877;43.706;10.780;2023-03-01T12:34:59;8.00;96.70
45115;DHT22;30877;43.706;10.780;2023-03-01T12:37:36;8.10;96.70
45115;DHT22;30877;43.706;10.780;2023-03-01T12:40:37;8.20;96.70
45115;DHT22;30877;43.706;10.780;2023-03-01T12:43:17;8.20;96.70
45115;DHT22;30877;43.706;10.780;2023-03-01T12:46:05;8.20;96.70
45115;DHT22;30877;43.706;10.780;2023-03-01T12:48:43;8.30;96.70
45115;DHT22;30877;43.706;10.780;2023-03-01T12:51:19;8.20;96.70
45115;DHT22;30877;43.706;10.780;2023-03-01T12:53:50;8.00;96.70
45115;DHT22;30877;43.706;10.780;2023-03-01T12:56:20;7.90;96.70
45115;DHT22;30877;43.706;10.780;2023-03-01T12:58:57;7.90;96.70
45115;DHT22;30877;43.706;10.780;2023-03-01T13:01:36;8.00;96.70
45115;DHT22;30877;43.706;10.780;2023-03-01T13:04:15;8.10;96.70
45115;DHT22;30877;43.706;10.780;2023-03-01T13:06:55;8.10;96.70
45115;DHT22;30877;43.706;10.780;2023-03-01T13:09:31;8.30;96.70
45115;DHT22;30877;43.706;10.780;2023-03-01T13:12:02;8.40;96.70
45115;DHT22;30877;43.706;10.780;2023-03-01T13:14:44;8.40;96.70
45115;DHT22;30877;43.706;10.780;2023-03-01T13:17:33;8.40;96.70
45115;DHT22;30877;43.706;10.780;2023-03-01T13:20:14;8.50;96.70
45115;DHT22;30877;43.706;10.780;2023-03-01T13:22:46;8.50;96.70
45115;DHT22;30877;43.706;10.780;2023-03-01T13:25:21;8.50;96.70
45115;DHT22;30877;43.706;10.780;2023-03-01T13:28:36;8.20;96.70
45115;DHT22;30877;43.706;10.780;2023-03-01T13:31:06;8.00;96.70
45115;DHT22;30877;43.706;10.780;2023-03-01T13:33:40;8.00;96.70
45115;DHT22;30877;43.706;10.780;2023-03-01T13:36:09;7.90;96.70
45115;DHT22;30877;43.706;10.780;2023-03-01T13:38:47;7.90;96.70
45115;DHT22;30877;43.706;10.780;2023-03-01T13:41:17;8.20;96.70
45115;DHT22;30877;43.706;10.780;2023-03-01T13:44:12;8.30;96.70
45115;DHT22;30877;43.706;10.780;2023-03-01T13:46:42;8.20;96.70
45115;DHT22;30877;43.706;10.780;2023-03-01T13:49:15;8.10;96.70
45115;DHT22;30877;43.706;10.780;2023-03-01T13:51:53;8.20;96.70
45115;DHT22;30877;43.706;10.780;2023-03-01T13:54:26;8.30;96.70
45115;DHT22;30877;43.706;10.780;2023-03-01T13:56:59;8.30;96.70
45115;DHT22;30877;43.706;10.780;2023-03-01T13:59:27;8.40;96.70
45115;DHT22;30877;43.706;10.780;2023-03-01T14:01:59;8.40;96.70
45115;DHT22;30877;43.706;10.780;2023-03-01T14:04:29;8.50;96.70
45115;DHT22;30877;43.706;10.780;2023-03-01T14:07:18;8.60;96.70
45115;DHT22;30877;43.706;10.780;2023-03-01T14:09:51;8.60;96.70
45115;DHT22;30877;43.706;10.780;2023-03-01T14:12:30;8.60;96.70
45115;DHT22;30877;43.706;10.780;2023-03-01T14:15:04;8.60;96.70
45115;DHT22;30877;43.706;10.780;2023-03-01T14:17:44;8.70;96.70
45115;DHT22;30877;43.706;10.780;2023-03-01T14:20:19;8.80;96.70
45115;DHT22;30877;43.706;10.780;2023-03-01T14:22:49;8.80;96.70
45115;DHT22;30877;43.706;10.780;2023-03-01T14:25:26;8.90;96.70
45115;DHT22;30877;43.706;10.780;2023-03-01T14:28:02;9.00;96.70
45115;DHT22;30877;43.706;10.780;2023-03-01T14:30:36;9.00;96.70
45115;DHT22;30877;43.706;10.780;2023-03-01T14:33:17;9.00;96.70
45115;DHT22;30877;43.706;10.780;2023-03-01T14:35:53;9.20;96.70
45115;DHT22;30877;43.706;10.780;2023-03-01T14:38:23;9.20;96.70
45115;DHT22;30877;43.706;10.780;2023-03-01T14:40:55;9.30;96.70
45115;DHT22;30877;43.706;10.780;2023-03-01T14:43:25;9.30;96.70
45115;DHT22;30877;43.706;10.780;2023-03-01T14:45:54;9.20;96.70
45115;DHT22;30877;43.706;10.780;2023-03-01T14:48:22;9.20;96.70
45115;DHT22;30877;43.706;10.780;2023-03-01T14:50:51;9.20;96.70
45115;DHT22;30877;43.706;10.780;2023-03-01T14:53:21;9.30;96.70
45115;DHT22;30877;43.706;10.780;2023-03-01T14:55:54;9.40;96.70
45115;DHT22;30877;43.706;10.780;2023-03-01T14:58:25;9.40;96.70
45115;DHT22;30877;43.706;10.780;2023-03-01T15:00:55;9.50;96.70
45115;DHT22;30877;43.706;10.780;2023-03-01T15:03:27;9.40;96.70
45115;DHT22;30877;43.706;10.780;2023-03-01T15:06:00;9.50;96.70
45115;DHT22;30877;43.706;10.780;2023-03-01T15:08:29;9.50;96.70
45115;DHT22;30877;43.706;10.780;2023-03-01T15:11:04;9.40;96.70
45115;DHT22;30877;43.706;10.780;2023-03-01T15:13:36;9.60;96.70
45115;DHT22;30877;43.706;10.780;2023-03-01T15:16:07;9.70;96.70
45115;DHT22;30877;43.706;10.780;2023-03-01T15:18:37;9.70;96.70
45115;DHT22;30877;43.706;10.780;2023-03-01T15:21:07;9.80;96.70
45115;DHT22;30877;43.706;10.780;2023-03-01T15:23:37;10.00;96.70
45115;DHT22;30877;43.706;10.780;2023-03-01T15:26:22;10.10;96.70
45115;DHT22;30877;43.706;10.780;2023-03-01T15:28:52;10.00;96.70
45115;DHT22;30877;43.706;10.780;2023-03-01T15:31:27;10.00;96.70
45115;DHT22;30877;43.706;10.780;2023-03-01T15:34:09;9.90;96.70
45115;DHT22;30877;43.706;10.780;2023-03-01T15:36:42;10.00;96.70
45115;DHT22;30877;43.706;10.780;2023-03-01T15:42:37;10.80;96.70
45115;DHT22;30877;43.706;10.780;2023-03-01T15:45:10;11.60;96.70
45115;DHT22;30877;43.706;10.780;2023-03-01T15:47:40;12.40;96.70
45115;DHT22;30877;43.706;10.780;2023-03-01T15:50:17;13.30;96.70
45115;DHT22;30877;43.706;10.780;2023-03-01T15:52:47;14.30;96.70
45115;DHT22;30877;43.706;10.780;2023-03-01T15:55:17;14.90;96.70
45115;DHT22;30877;43.706;10.780;2023-03-01T15:57:48;15.70;96.70
45115;DHT22;30877;43.706;10.780;2023-03-01T16:00:17;16.20;96.70
45115;DHT22;30877;43.706;10.780;2023-03-01T16:02:46;16.40;96.70
45115;DHT22;30877;43.706;10.780;2023-03-01T16:05:19;16.00;96.70
45115;DHT22;30877;43.706;10.780;2023-03-01T16:07:48;15.70;96.70
45115;DHT22;30877;43.706;10.780;2023-03-01T16:10:17;15.50;96.70
45115;DHT22;30877;43.706;10.780;2023-03-01T16:12:47;14.30;96.70
45115;DHT22;30877;43.706;10.780;2023-03-01T16:15:18;13.20;96.70